Time,TemperatureF,DewpointF,PressureIn,WindDirection,WindDirectionDegrees,WindSpeedMPH,WindSpeedGustMPH,Humidity,HourlyPrecipIn,Conditions,Clouds,dailyrainin,SoftwareType,DateUTC
2013-06-02 00:01:00,75.0,71.5,29.98,SSW,196,0.0,0.0,89,0.00,,,0.00,WeatherCatV1.02B3,2013-06-02 05:01:00,
2013-06-02 00:06:00,75.1,72.0,29.99,SSW,196,0.0,0.0,90,0.00,,,0.00,WeatherCatV1.02B3,2013-06-02 05:06:00,
2013-06-02 00:11:00,75.1,72.0,30.00,SSW,196,0.0,0.0,90,0.00,,,0.00,WeatherCatV1.02B3,2013-06-02 05:11:00,
2013-06-02 00:16:00,75.2,72.1,29.99,SSW,196,0.0,0.0,90,0.00,,,0.00,WeatherCatV1.02B3,2013-06-02 05:16:00,
2013-06-02 00:21:00,75.4,72.3,30.02,South,191,1.0,1.0,90,0.00,,,0.00,WeatherCatV1.02B3,2013-06-02 05:21:00,
2013-06-02 00:26:00,74.5,68.6,30.04,SW,231,6.0,19.0,82,0.00,,,0.00,WeatherCatV1.02B3,2013-06-02 05:26:00,
2013-06-02 00:31:00,71.9,67.1,30.06,ESE,112,4.0,7.0,85,4.27,,,0.04,WeatherCatV1.02B3,2013-06-02 05:31:00,
2013-06-02 00:36:00,70.1,66.4,30.04,East,93,2.0,13.0,88,1.66,,,0.13,WeatherCatV1.02B3,2013-06-02 05:36:00,
2013-06-02 00:41:00,68.9,66.2,30.04,ENE,76,2.0,3.0,91,0.98,,,0.23,WeatherCatV1.02B3,2013-06-02 05:41:00,
2013-06-02 00:46:00,68.4,66.0,30.03,East,80,2.0,2.0,92,1.06,,,0.34,WeatherCatV1.02B3,2013-06-02 05:46:00,
2013-06-02 00:51:00,68.3,66.2,30.04,SSE,154,2.0,4.0,93,1.79,,,0.46,WeatherCatV1.02B3,2013-06-02 05:51:00,
2013-06-02 00:56:00,68.2,66.1,30.05,SSW,200,0.0,1.0,93,1.57,,,0.56,WeatherCatV1.02B3,2013-06-02 05:56:00,
2013-06-02 01:01:00,68.1,66.3,30.04,SSW,203,0.0,2.0,94,0.78,,,0.64,WeatherCatV1.02B3,2013-06-02 06:01:00,
2013-06-02 01:06:00,68.0,66.5,30.02,SSW,207,0.0,3.0,95,0.78,,,0.72,WeatherCatV1.02B3,2013-06-02 06:06:00,
2013-06-02 01:11:00,67.9,66.1,30.02,SSW,200,0.0,2.0,94,1.20,,,0.79,WeatherCatV1.02B3,2013-06-02 06:11:00,
2013-06-02 01:16:00,67.8,66.0,30.02,SSW,198,0.0,1.0,94,1.04,,,0.85,WeatherCatV1.02B3,2013-06-02 06:16:00,
2013-06-02 01:21:00,67.8,66.0,30.02,SSE,155,0.0,0.0,94,0.46,,,0.90,WeatherCatV1.02B3,2013-06-02 06:21:00,
2013-06-02 01:26:00,67.8,66.0,30.01,SSW,200,1.0,6.0,94,0.38,,,0.95,WeatherCatV1.02B3,2013-06-02 06:26:00,
2013-06-02 01:31:00,67.8,66.0,30.01,SSW,200,0.0,1.0,94,0.32,,,0.98,WeatherCatV1.02B3,2013-06-02 06:31:00,
2013-06-02 01:36:00,67.7,66.2,30.01,SSW,200,0.0,0.0,95,0.28,,,1.02,WeatherCatV1.02B3,2013-06-02 06:36:00,
2013-06-02 01:41:00,67.8,66.3,30.01,South,171,0.0,0.0,95,0.41,,,1.04,WeatherCatV1.02B3,2013-06-02 06:41:00,
2013-06-02 01:46:00,67.8,66.3,30.01,South,171,0.0,0.0,95,0.25,,,1.05,WeatherCatV1.02B3,2013-06-02 06:46:00,
2013-06-02 01:51:00,67.8,66.3,30.00,South,171,0.0,0.0,95,0.12,,,1.06,WeatherCatV1.02B3,2013-06-02 06:51:00,
2013-06-02 01:56:00,67.9,66.4,30.00,South,171,0.0,0.0,95,0.07,,,1.07,WeatherCatV1.02B3,2013-06-02 06:56:00,
2013-06-02 02:01:00,68.0,66.5,30.00,South,171,0.0,1.0,95,0.17,,,1.08,WeatherCatV1.02B3,2013-06-02 07:01:00,
2013-06-02 02:06:00,68.0,66.5,30.00,South,171,0.0,1.0,95,0.08,,,1.08,WeatherCatV1.02B3,2013-06-02 07:06:00,
2013-06-02 02:11:00,67.9,66.4,30.00,SE,146,0.0,4.0,95,0.05,,,1.08,WeatherCatV1.02B3,2013-06-02 07:11:00,
2013-06-02 02:16:00,67.9,66.4,30.00,SE,146,0.0,0.0,95,0.00,,,1.08,WeatherCatV1.02B3,2013-06-02 07:16:00,
2013-06-02 02:21:00,67.9,66.4,29.99,SE,146,0.0,0.0,95,0.00,,,1.08,WeatherCatV1.02B3,2013-06-02 07:21:00,
2013-06-02 02:26:00,68.0,66.5,29.98,SE,146,0.0,0.0,95,0.00,,,1.08,WeatherCatV1.02B3,2013-06-02 07:26:00,
2013-06-02 02:31:00,68.0,66.5,30.00,SE,146,0.0,1.0,95,0.00,,,1.08,WeatherCatV1.02B3,2013-06-02 07:31:00,
2013-06-02 02:36:00,68.0,66.5,30.01,West,265,0.0,1.0,95,0.00,,,1.08,WeatherCatV1.02B3,2013-06-02 07:36:00,
2013-06-02 02:41:00,68.0,66.5,30.02,WNW,298,0.0,0.0,95,0.00,,,1.08,WeatherCatV1.02B3,2013-06-02 07:41:00,
2013-06-02 02:46:00,68.0,66.5,30.01,WNW,298,0.0,0.0,95,0.00,,,1.08,WeatherCatV1.02B3,2013-06-02 07:46:00,
2013-06-02 02:51:00,68.0,66.5,30.01,WNW,298,0.0,0.0,95,0.00,,,1.08,WeatherCatV1.02B3,2013-06-02 07:51:00,
2013-06-02 02:56:00,67.9,66.4,30.01,WNW,298,0.0,0.0,95,0.00,,,1.09,WeatherCatV1.02B3,2013-06-02 07:56:00,
2013-06-02 03:01:00,67.9,66.4,30.01,WNW,298,0.0,0.0,95,0.00,,,1.09,WeatherCatV1.02B3,2013-06-02 08:01:00,
2013-06-02 03:06:00,67.9,66.4,30.00,SW,233,0.0,2.0,95,0.00,,,1.09,WeatherCatV1.02B3,2013-06-02 08:06:00,
2013-06-02 03:11:00,67.9,66.4,30.00,SW,233,0.0,0.0,95,0.00,,,1.09,WeatherCatV1.02B3,2013-06-02 08:11:00,
2013-06-02 03:16:00,67.9,66.4,30.00,West,269,0.0,1.0,95,0.00,,,1.09,WeatherCatV1.02B3,2013-06-02 08:16:00,
2013-06-02 03:21:00,67.8,66.6,30.00,West,269,0.0,1.0,96,0.00,,,1.09,WeatherCatV1.02B3,2013-06-02 08:21:00,
2013-06-02 03:26:00,67.7,66.5,30.00,West,269,0.0,3.0,96,0.00,,,1.09,WeatherCatV1.02B3,2013-06-02 08:26:00,
2013-06-02 03:31:00,67.6,66.4,29.99,West,269,0.0,3.0,96,0.00,,,1.09,WeatherCatV1.02B3,2013-06-02 08:31:00,
2013-06-02 03:36:00,67.4,65.9,29.99,West,266,0.0,5.0,95,0.00,,,1.09,WeatherCatV1.02B3,2013-06-02 08:36:00,
2013-06-02 03:41:00,67.2,65.7,30.00,West,265,0.0,1.0,95,0.00,,,1.09,WeatherCatV1.02B3,2013-06-02 08:41:00,
2013-06-02 03:46:00,67.2,66.0,30.00,West,265,1.0,1.0,96,0.00,,,1.09,WeatherCatV1.02B3,2013-06-02 08:46:00,
2013-06-02 03:51:00,67.2,66.0,29.99,West,267,4.0,4.0,96,0.00,,,1.09,WeatherCatV1.02B3,2013-06-02 08:51:00,
2013-06-02 03:56:00,67.1,65.9,29.98,West,273,0.0,3.0,96,0.00,,,1.09,WeatherCatV1.02B3,2013-06-02 08:56:00,
2013-06-02 04:01:00,67.0,65.8,29.98,South,177,5.0,5.0,96,0.00,,,1.09,WeatherCatV1.02B3,2013-06-02 09:01:00,
2013-06-02 04:06:00,66.9,65.7,29.98,WSW,245,0.0,2.0,96,0.00,,,1.09,WeatherCatV1.02B3,2013-06-02 09:06:00,
2013-06-02 04:11:00,66.9,65.7,29.98,West,262,0.0,2.0,96,0.00,,,1.09,WeatherCatV1.02B3,2013-06-02 09:11:00,
2013-06-02 04:16:00,66.9,65.7,29.99,West,281,0.0,2.0,96,0.00,,,1.09,WeatherCatV1.02B3,2013-06-02 09:16:00,
2013-06-02 04:21:00,66.9,65.7,29.99,West,260,1.0,3.0,96,0.00,,,1.09,WeatherCatV1.02B3,2013-06-02 09:21:00,
2013-06-02 04:26:00,66.9,65.7,29.99,West,273,1.0,3.0,96,0.00,,,1.09,WeatherCatV1.02B3,2013-06-02 09:26:00,
2013-06-02 04:31:00,66.9,65.7,29.99,West,274,1.0,5.0,96,0.00,,,1.09,WeatherCatV1.02B3,2013-06-02 09:31:00,
2013-06-02 04:36:00,66.9,65.7,29.99,West,278,1.0,4.0,96,0.00,,,1.09,WeatherCatV1.02B3,2013-06-02 09:36:00,
2013-06-02 04:41:00,66.8,65.6,29.99,West,272,0.0,4.0,96,0.00,,,1.09,WeatherCatV1.02B3,2013-06-02 09:41:00,
2013-06-02 04:46:00,66.8,65.6,30.00,West,271,1.0,2.0,96,0.00,,,1.09,WeatherCatV1.02B3,2013-06-02 09:46:00,
2013-06-02 04:51:00,66.8,65.6,30.00,WNW,283,0.0,2.0,96,0.00,,,1.09,WeatherCatV1.02B3,2013-06-02 09:51:00,
2013-06-02 04:56:00,66.8,65.6,30.00,WNW,283,0.0,1.0,96,0.00,,,1.09,WeatherCatV1.02B3,2013-06-02 09:56:00,
2013-06-02 05:01:00,66.8,65.6,30.00,West,278,0.0,2.0,96,0.00,,,1.09,WeatherCatV1.02B3,2013-06-02 10:01:00,
2013-06-02 05:06:00,66.8,65.6,30.00,West,279,2.0,2.0,96,0.00,,,1.09,WeatherCatV1.02B3,2013-06-02 10:06:00,
2013-06-02 05:11:00,66.9,65.7,29.99,West,281,0.0,1.0,96,0.00,,,1.10,WeatherCatV1.02B3,2013-06-02 10:11:00,
2013-06-02 05:16:00,66.9,65.7,30.00,West,281,0.0,4.0,96,0.00,,,1.10,WeatherCatV1.02B3,2013-06-02 10:16:00,
2013-06-02 05:21:00,66.9,65.7,30.01,WNW,286,0.0,2.0,96,0.00,,,1.10,WeatherCatV1.02B3,2013-06-02 10:21:00,
2013-06-02 05:26:00,66.9,65.7,30.01,WNW,286,0.0,3.0,96,0.04,,,1.11,WeatherCatV1.02B3,2013-06-02 10:26:00,
2013-06-02 05:31:00,66.9,65.7,30.00,WNW,288,0.0,1.0,96,0.04,,,1.11,WeatherCatV1.02B3,2013-06-02 10:31:00,
2013-06-02 05:36:00,66.9,65.7,30.00,WNW,287,1.0,3.0,96,0.06,,,1.12,WeatherCatV1.02B3,2013-06-02 10:36:00,
2013-06-02 05:41:00,66.9,65.7,30.00,WNW,288,0.0,2.0,96,0.06,,,1.12,WeatherCatV1.02B3,2013-06-02 10:41:00,
2013-06-02 05:46:00,66.9,65.7,29.99,West,273,2.0,5.0,96,0.04,,,1.12,WeatherCatV1.02B3,2013-06-02 10:46:00,
2013-06-02 05:51:00,66.9,65.7,29.99,WNW,300,0.0,4.0,96,0.00,,,1.12,WeatherCatV1.02B3,2013-06-02 10:51:00,
2013-06-02 05:56:00,66.9,65.7,29.99,WNW,300,4.0,4.0,96,0.00,,,1.12,WeatherCatV1.02B3,2013-06-02 10:56:00,
2013-06-02 06:01:00,66.9,65.7,29.99,West,268,0.0,4.0,96,0.00,,,1.13,WeatherCatV1.02B3,2013-06-02 11:01:00,
2013-06-02 06:06:00,66.9,65.7,29.99,WNW,285,1.0,3.0,96,0.00,,,1.13,WeatherCatV1.02B3,2013-06-02 11:06:00,
2013-06-02 06:11:00,66.8,65.6,29.99,West,270,4.0,7.0,96,0.00,,,1.13,WeatherCatV1.02B3,2013-06-02 11:11:00,
2013-06-02 06:16:00,66.8,65.6,29.99,West,273,4.0,5.0,96,0.05,,,1.14,WeatherCatV1.02B3,2013-06-02 11:16:00,
2013-06-02 06:21:00,66.8,65.6,29.99,West,271,0.0,4.0,96,0.05,,,1.14,WeatherCatV1.02B3,2013-06-02 11:21:00,
2013-06-02 06:26:00,66.7,65.5,30.00,West,273,0.0,2.0,96,0.04,,,1.14,WeatherCatV1.02B3,2013-06-02 11:26:00,
2013-06-02 06:31:00,66.7,65.5,29.99,West,273,0.0,2.0,96,0.00,,,1.14,WeatherCatV1.02B3,2013-06-02 11:31:00,
2013-06-02 06:36:00,66.8,65.6,29.98,West,273,0.0,0.0,96,0.00,,,1.14,WeatherCatV1.02B3,2013-06-02 11:36:00,
2013-06-02 06:41:00,66.8,65.6,29.98,West,270,0.0,1.0,96,0.00,,,1.14,WeatherCatV1.02B3,2013-06-02 11:41:00,
2013-06-02 06:46:00,66.8,65.6,29.98,West,270,0.0,0.0,96,0.00,,,1.15,WeatherCatV1.02B3,2013-06-02 11:46:00,
2013-06-02 06:51:00,66.8,65.6,29.98,WNW,284,0.0,0.0,96,0.00,,,1.15,WeatherCatV1.02B3,2013-06-02 11:51:00,
2013-06-02 06:56:00,66.8,65.6,29.98,WNW,284,0.0,0.0,96,0.00,,,1.15,WeatherCatV1.02B3,2013-06-02 11:56:00,
2013-06-02 07:01:00,66.8,65.6,29.99,WNW,284,0.0,0.0,96,0.00,,,1.15,WeatherCatV1.02B3,2013-06-02 12:01:00,
2013-06-02 07:06:00,66.8,65.6,29.99,WNW,284,0.0,0.0,96,0.00,,,1.16,WeatherCatV1.02B3,2013-06-02 12:06:00,
2013-06-02 07:11:00,66.8,65.6,29.99,WNW,284,0.0,0.0,96,0.00,,,1.16,WeatherCatV1.02B3,2013-06-02 12:11:00,
2013-06-02 07:16:00,66.8,65.6,30.00,WNW,284,0.0,0.0,96,0.00,,,1.16,WeatherCatV1.02B3,2013-06-02 12:16:00,
2013-06-02 07:21:00,66.8,65.6,29.99,WNW,284,0.0,0.0,96,0.00,,,1.16,WeatherCatV1.02B3,2013-06-02 12:21:00,
2013-06-02 07:26:00,66.9,65.7,29.99,WNW,284,0.0,0.0,96,0.00,,,1.16,WeatherCatV1.02B3,2013-06-02 12:26:00,
2013-06-02 07:31:00,67.0,65.8,29.99,WNW,284,0.0,0.0,96,0.00,,,1.16,WeatherCatV1.02B3,2013-06-02 12:31:00,
2013-06-02 07:36:00,67.0,65.8,29.99,WNW,284,0.0,0.0,96,0.00,,,1.16,WeatherCatV1.02B3,2013-06-02 12:36:00,
2013-06-02 07:41:00,67.2,66.0,29.99,WNW,284,0.0,0.0,96,0.00,,,1.16,WeatherCatV1.02B3,2013-06-02 12:41:00,
2013-06-02 07:46:00,67.3,66.1,29.98,WNW,284,0.0,0.0,96,0.00,,,1.16,WeatherCatV1.02B3,2013-06-02 12:46:00,
2013-06-02 07:51:00,67.4,66.2,29.98,WNW,284,0.0,0.0,96,0.00,,,1.16,WeatherCatV1.02B3,2013-06-02 12:51:00,
2013-06-02 07:56:00,67.5,66.3,29.98,WNW,284,0.0,0.0,96,0.00,,,1.17,WeatherCatV1.02B3,2013-06-02 12:56:00,
2013-06-02 08:01:00,67.5,66.3,29.98,WNW,286,0.0,0.0,96,0.00,,,1.17,WeatherCatV1.02B3,2013-06-02 13:01:00,
2013-06-02 08:06:00,67.7,66.5,29.99,WNW,302,0.0,0.0,96,0.00,,,1.17,WeatherCatV1.02B3,2013-06-02 13:06:00,
2013-06-02 08:11:00,67.9,66.7,29.99,WNW,302,1.0,2.0,96,0.00,,,1.17,WeatherCatV1.02B3,2013-06-02 13:11:00,
2013-06-02 08:16:00,67.9,66.7,30.00,WNW,302,0.0,0.0,96,0.00,,,1.17,WeatherCatV1.02B3,2013-06-02 13:16:00,
2013-06-02 08:21:00,67.8,66.6,29.99,WNW,302,0.0,0.0,96,0.00,,,1.17,WeatherCatV1.02B3,2013-06-02 13:21:00,
2013-06-02 08:26:00,68.1,66.9,29.98,WNW,302,0.0,0.0,96,0.00,,,1.17,WeatherCatV1.02B3,2013-06-02 13:26:00,
2013-06-02 08:31:00,68.1,66.9,29.98,WNW,302,0.0,0.0,96,0.00,,,1.17,WeatherCatV1.02B3,2013-06-02 13:31:00,
2013-06-02 08:36:00,68.1,66.9,29.98,WNW,302,0.0,0.0,96,0.00,,,1.17,WeatherCatV1.02B3,2013-06-02 13:36:00,
2013-06-02 08:41:00,68.2,67.0,29.98,WNW,302,0.0,0.0,96,0.00,,,1.17,WeatherCatV1.02B3,2013-06-02 13:41:00,
2013-06-02 08:46:00,68.3,67.1,29.98,WNW,302,0.0,1.0,96,0.00,,,1.17,WeatherCatV1.02B3,2013-06-02 13:46:00,
2013-06-02 08:51:00,68.4,67.2,29.98,WNW,302,0.0,0.0,96,0.00,,,1.17,WeatherCatV1.02B3,2013-06-02 13:51:00,
2013-06-02 08:56:00,68.5,67.3,29.98,WNW,302,0.0,1.0,96,0.00,,,1.17,WeatherCatV1.02B3,2013-06-02 13:56:00,
2013-06-02 09:01:00,68.4,67.2,29.99,WNW,302,0.0,0.0,96,0.00,,,1.17,WeatherCatV1.02B3,2013-06-02 14:01:00,
2013-06-02 09:06:00,68.5,67.3,29.98,WNW,302,0.0,0.0,96,0.00,,,1.17,WeatherCatV1.02B3,2013-06-02 14:06:00,
2013-06-02 09:11:00,69.0,67.8,29.99,WNW,302,0.0,0.0,96,0.00,,,1.18,WeatherCatV1.02B3,2013-06-02 14:11:00,
2013-06-02 09:16:00,68.9,67.7,29.99,WNW,302,0.0,0.0,96,0.00,,,1.18,WeatherCatV1.02B3,2013-06-02 14:16:00,
2013-06-02 09:21:00,68.7,67.5,29.98,WNW,301,0.0,1.0,96,0.00,,,1.18,WeatherCatV1.02B3,2013-06-02 14:21:00,
2013-06-02 09:26:00,68.7,67.5,29.99,WNW,301,0.0,0.0,96,0.00,,,1.18,WeatherCatV1.02B3,2013-06-02 14:26:00,
2013-06-02 09:31:00,69.0,67.8,29.98,WNW,301,0.0,0.0,96,0.00,,,1.18,WeatherCatV1.02B3,2013-06-02 14:31:00,
2013-06-02 09:36:00,69.0,67.8,29.99,WNW,302,1.0,1.0,96,0.00,,,1.18,WeatherCatV1.02B3,2013-06-02 14:36:00,
2013-06-02 09:41:00,69.0,67.8,29.98,North,355,0.0,0.0,96,0.00,,,1.18,WeatherCatV1.02B3,2013-06-02 14:41:00,
2013-06-02 09:46:00,69.1,67.9,29.98,North,355,0.0,1.0,96,0.00,,,1.18,WeatherCatV1.02B3,2013-06-02 14:46:00,
2013-06-02 09:51:00,69.4,68.2,29.98,North,355,0.0,0.0,96,0.00,,,1.18,WeatherCatV1.02B3,2013-06-02 14:51:00,
2013-06-02 09:56:00,69.7,68.5,29.98,North,355,0.0,0.0,96,0.00,,,1.18,WeatherCatV1.02B3,2013-06-02 14:56:00,
2013-06-02 10:01:00,70.1,68.9,29.98,North,355,0.0,1.0,96,0.00,,,1.18,WeatherCatV1.02B3,2013-06-02 15:01:00,
2013-06-02 10:06:00,70.6,69.4,29.98,North,355,0.0,1.0,96,0.00,,,1.18,WeatherCatV1.02B3,2013-06-02 15:06:00,
2013-06-02 10:11:00,70.9,69.7,29.99,North,355,0.0,0.0,96,0.00,,,1.18,WeatherCatV1.02B3,2013-06-02 15:11:00,
2013-06-02 10:16:00,71.0,69.5,29.99,North,355,0.0,0.0,95,0.00,,,1.18,WeatherCatV1.02B3,2013-06-02 15:16:00,
2013-06-02 10:21:00,71.4,69.9,29.98,North,355,1.0,1.0,95,0.00,,,1.18,WeatherCatV1.02B3,2013-06-02 15:21:00,
2013-06-02 10:26:00,71.5,69.7,29.99,North,355,0.0,1.0,94,0.00,,,1.18,WeatherCatV1.02B3,2013-06-02 15:26:00,
2013-06-02 10:31:00,71.8,70.0,29.98,North,355,0.0,0.0,94,0.00,,,1.18,WeatherCatV1.02B3,2013-06-02 15:31:00,
2013-06-02 10:36:00,72.0,69.9,29.98,North,0,0.0,0.0,93,0.00,,,1.18,WeatherCatV1.02B3,2013-06-02 15:36:00,
2013-06-02 10:41:00,72.1,69.6,29.98,North,0,0.0,0.0,92,0.00,,,1.18,WeatherCatV1.02B3,2013-06-02 15:41:00,
2013-06-02 10:46:00,72.3,69.5,29.98,North,0,0.0,0.0,91,0.00,,,1.18,WeatherCatV1.02B3,2013-06-02 15:46:00,
2013-06-02 10:51:00,72.7,69.6,29.98,North,0,0.0,1.0,90,0.00,,,1.18,WeatherCatV1.02B3,2013-06-02 15:51:00,
2013-06-02 10:56:00,73.0,69.6,29.97,North,0,0.0,0.0,89,0.00,,,1.18,WeatherCatV1.02B3,2013-06-02 15:56:00,
2013-06-02 11:01:00,73.3,69.2,29.97,SSE,150,0.0,0.0,87,0.00,,,1.18,WeatherCatV1.02B3,2013-06-02 16:01:00,
2013-06-02 11:06:00,73.7,69.9,29.97,NW,313,1.0,2.0,88,0.00,,,1.18,WeatherCatV1.02B3,2013-06-02 16:06:00,
2013-06-02 11:11:00,74.2,70.4,29.97,NW,313,0.0,0.0,88,0.00,,,1.18,WeatherCatV1.02B3,2013-06-02 16:11:00,
2013-06-02 11:16:00,74.3,69.8,29.97,NW,321,0.0,1.0,86,0.00,,,1.18,WeatherCatV1.02B3,2013-06-02 16:16:00,
2013-06-02 11:21:00,74.2,69.0,29.97,NNW,344,0.0,1.0,84,0.00,,,1.18,WeatherCatV1.02B3,2013-06-02 16:21:00,
2013-06-02 11:26:00,74.4,69.6,29.97,WSW,250,0.0,0.0,85,0.00,,,1.18,WeatherCatV1.02B3,2013-06-02 16:26:00,
2013-06-02 11:32:00,74.7,70.2,29.96,NW,314,0.0,0.0,86,0.00,,,1.18,WeatherCatV1.02B3,2013-06-02 16:32:00,
2013-06-02 11:37:00,75.0,69.1,29.96,NNW,339,0.0,0.0,82,0.00,,,1.18,WeatherCatV1.02B3,2013-06-02 16:37:00,
2013-06-02 11:42:00,75.2,69.7,29.97,NNW,340,0.0,2.0,83,0.00,,,1.18,WeatherCatV1.02B3,2013-06-02 16:42:00,
2013-06-02 11:47:00,75.3,69.8,29.97,NNE,32,0.0,0.0,83,0.00,,,1.18,WeatherCatV1.02B3,2013-06-02 16:47:00,
2013-06-02 11:52:00,75.6,70.1,29.96,NNE,32,1.0,1.0,83,0.00,,,1.18,WeatherCatV1.02B3,2013-06-02 16:52:00,
2013-06-02 11:57:00,75.8,70.3,29.96,NE,48,0.0,1.0,83,0.00,,,1.18,WeatherCatV1.02B3,2013-06-02 16:57:00,
2013-06-02 12:02:00,76.2,70.6,29.96,ENE,71,0.0,3.0,83,0.00,,,1.18,WeatherCatV1.02B3,2013-06-02 17:02:00,
2013-06-02 12:07:00,76.4,70.8,29.96,ENE,78,0.0,1.0,83,0.00,,,1.18,WeatherCatV1.02B3,2013-06-02 17:07:00,
2013-06-02 12:12:00,76.5,70.6,29.96,ENE,78,0.0,1.0,82,0.00,,,1.18,WeatherCatV1.02B3,2013-06-02 17:12:00,
2013-06-02 12:17:00,76.7,70.0,29.96,NNE,22,1.0,2.0,80,0.00,,,1.18,WeatherCatV1.02B3,2013-06-02 17:17:00,
2013-06-02 12:22:00,77.1,71.2,29.97,SE,132,1.0,6.0,82,0.00,,,1.18,WeatherCatV1.02B3,2013-06-02 17:22:00,
2013-06-02 12:27:00,77.4,70.4,29.97,North,9,1.0,2.0,79,0.00,,,1.18,WeatherCatV1.02B3,2013-06-02 17:27:00,
2013-06-02 12:32:00,77.6,70.2,29.97,North,0,1.0,3.0,78,0.00,,,1.18,WeatherCatV1.02B3,2013-06-02 17:32:00,
2013-06-02 12:37:00,77.9,70.1,29.97,North,9,3.0,5.0,77,0.00,,,1.18,WeatherCatV1.02B3,2013-06-02 17:37:00,
2013-06-02 12:42:00,78.1,70.7,29.97,ENE,75,3.0,3.0,78,0.00,,,1.18,WeatherCatV1.02B3,2013-06-02 17:42:00,
2013-06-02 12:47:00,78.2,70.4,29.97,ESE,119,0.0,2.0,77,0.00,,,1.18,WeatherCatV1.02B3,2013-06-02 17:47:00,
2013-06-02 12:52:00,78.4,71.7,29.97,ESE,110,0.0,2.0,80,0.00,,,1.18,WeatherCatV1.02B3,2013-06-02 17:52:00,
2013-06-02 12:57:00,78.9,72.2,29.97,SSE,158,0.0,4.0,80,0.00,,,1.18,WeatherCatV1.02B3,2013-06-02 17:57:00,
2013-06-02 13:02:00,79.2,71.3,29.98,South,174,0.0,0.0,77,0.00,,,1.18,WeatherCatV1.02B3,2013-06-02 18:02:00,
2013-06-02 13:07:00,79.6,71.7,29.98,South,174,0.0,0.0,77,0.00,,,1.18,WeatherCatV1.02B3,2013-06-02 18:07:00,
2013-06-02 13:12:00,79.8,71.1,29.98,SSE,159,0.0,2.0,75,0.00,,,1.18,WeatherCatV1.02B3,2013-06-02 18:12:00,
2013-06-02 13:17:00,80.0,70.9,29.98,SSE,159,0.0,0.0,74,0.00,,,1.18,WeatherCatV1.02B3,2013-06-02 18:17:00,
2013-06-02 13:22:00,80.2,71.9,29.98,SSE,158,0.0,1.0,76,0.00,,,1.18,WeatherCatV1.02B3,2013-06-02 18:22:00,
2013-06-02 13:27:00,80.5,71.0,29.98,SSE,158,0.0,5.0,73,0.00,,,1.18,WeatherCatV1.02B3,2013-06-02 18:27:00,
2013-06-02 13:32:00,80.5,71.4,29.98,SSE,158,0.0,0.0,74,0.00,,,1.18,WeatherCatV1.02B3,2013-06-02 18:32:00,
2013-06-02 13:37:00,80.2,69.9,29.98,ENE,61,0.0,1.0,71,0.00,,,1.18,WeatherCatV1.02B3,2013-06-02 18:37:00,
2013-06-02 13:42:00,79.9,70.4,29.98,ENE,61,0.0,0.0,73,0.00,,,1.18,WeatherCatV1.02B3,2013-06-02 18:42:00,
2013-06-02 13:47:00,79.6,70.2,29.98,NE,36,0.0,2.0,73,0.00,,,1.18,WeatherCatV1.02B3,2013-06-02 18:47:00,
2013-06-02 13:52:00,79.1,69.3,29.98,NE,36,0.0,0.0,72,0.00,,,1.18,WeatherCatV1.02B3,2013-06-02 18:52:00,
2013-06-02 13:57:00,78.9,70.7,29.98,NE,36,0.0,0.0,76,0.00,,,1.18,WeatherCatV1.02B3,2013-06-02 18:57:00,
2013-06-02 14:02:00,79.1,70.9,29.98,NE,36,0.0,1.0,76,0.00,,,1.18,WeatherCatV1.02B3,2013-06-02 19:02:00,
2013-06-02 14:07:00,79.4,70.4,29.98,ESE,119,0.0,1.0,74,0.00,,,1.18,WeatherCatV1.02B3,2013-06-02 19:07:00,
2013-06-02 14:12:00,79.5,70.9,29.98,SE,141,0.0,1.0,75,0.00,,,1.18,WeatherCatV1.02B3,2013-06-02 19:12:00,
2013-06-02 14:17:00,79.5,70.9,29.98,SE,141,0.0,0.0,75,0.00,,,1.18,WeatherCatV1.02B3,2013-06-02 19:17:00,
2013-06-02 14:22:00,79.7,71.1,29.98,SE,141,0.0,0.0,75,0.00,,,1.18,WeatherCatV1.02B3,2013-06-02 19:22:00,
2013-06-02 14:27:00,80.3,72.8,29.97,SE,141,0.0,0.0,78,0.00,,,1.18,WeatherCatV1.02B3,2013-06-02 19:27:00,
2013-06-02 14:32:00,81.9,74.3,29.97,SSE,155,0.0,0.0,78,0.00,,,1.18,WeatherCatV1.02B3,2013-06-02 19:32:00,
2013-06-02 14:37:00,82.6,72.2,29.97,SSE,155,0.0,0.0,71,0.00,,,1.18,WeatherCatV1.02B3,2013-06-02 19:37:00,
2013-06-02 14:42:00,82.5,71.7,29.96,SSE,155,0.0,0.0,70,0.00,,,1.18,WeatherCatV1.02B3,2013-06-02 19:42:00,
2013-06-02 14:47:00,82.0,71.2,29.96,SSW,211,1.0,4.0,70,0.00,,,1.18,WeatherCatV1.02B3,2013-06-02 19:47:00,
2013-06-02 14:52:00,81.8,71.9,29.96,ESE,104,0.0,1.0,72,0.00,,,1.18,WeatherCatV1.02B3,2013-06-02 19:52:00,
2013-06-02 14:57:00,81.6,70.8,29.96,ESE,115,0.0,0.0,70,0.00,,,1.18,WeatherCatV1.02B3,2013-06-02 19:57:00,
2013-06-02 15:02:00,81.7,73.0,29.96,ESE,115,0.0,1.0,75,0.00,,,1.18,WeatherCatV1.02B3,2013-06-02 20:02:00,
2013-06-02 15:07:00,81.6,71.7,29.96,SSE,149,0.0,6.0,72,0.00,,,1.18,WeatherCatV1.02B3,2013-06-02 20:07:00,
2013-06-02 15:12:00,81.4,71.5,29.95,SSE,149,1.0,2.0,72,0.00,,,1.18,WeatherCatV1.02B3,2013-06-02 20:12:00,
2013-06-02 15:17:00,81.1,71.6,29.95,SE,142,0.0,2.0,73,0.00,,,1.18,WeatherCatV1.02B3,2013-06-02 20:17:00,
2013-06-02 15:22:00,80.7,72.0,29.95,SE,142,1.0,2.0,75,0.00,,,1.18,WeatherCatV1.02B3,2013-06-02 20:22:00,
2013-06-02 15:27:00,80.8,72.1,29.95,SW,223,1.0,4.0,75,0.00,,,1.18,WeatherCatV1.02B3,2013-06-02 20:27:00,
2013-06-02 15:32:00,81.8,71.5,29.95,SW,223,0.0,0.0,71,0.00,,,1.18,WeatherCatV1.02B3,2013-06-02 20:32:00,
2013-06-02 15:37:00,81.8,71.9,29.96,SW,223,0.0,1.0,72,0.00,,,1.18,WeatherCatV1.02B3,2013-06-02 20:37:00,
2013-06-02 15:42:00,81.7,71.4,29.95,SE,141,0.0,2.0,71,0.00,,,1.18,WeatherCatV1.02B3,2013-06-02 20:42:00,
2013-06-02 15:47:00,81.4,71.9,29.95,SE,141,0.0,1.0,73,0.00,,,1.18,WeatherCatV1.02B3,2013-06-02 20:47:00,
2013-06-02 15:52:00,81.6,72.5,29.95,SE,141,0.0,1.0,74,0.00,,,1.18,WeatherCatV1.02B3,2013-06-02 20:52:00,
2013-06-02 15:57:00,81.5,72.8,29.95,SE,141,0.0,0.0,75,0.00,,,1.18,WeatherCatV1.02B3,2013-06-02 20:57:00,
2013-06-02 16:02:00,82.6,74.2,29.95,SE,141,0.0,0.0,76,0.00,,,1.18,WeatherCatV1.02B3,2013-06-02 21:02:00,
2013-06-02 16:07:00,83.3,72.5,29.94,ESE,103,0.0,2.0,70,0.00,,,1.18,WeatherCatV1.02B3,2013-06-02 21:07:00,
2013-06-02 16:12:00,83.0,71.8,29.94,ESE,103,0.0,0.0,69,0.00,,,1.18,WeatherCatV1.02B3,2013-06-02 21:12:00,
2013-06-02 16:17:00,82.8,71.6,29.94,ENE,78,0.0,1.0,69,0.00,,,1.18,WeatherCatV1.02B3,2013-06-02 21:17:00,
2013-06-02 16:22:00,83.7,73.3,29.94,NNE,33,0.0,2.0,71,0.00,,,1.18,WeatherCatV1.02B3,2013-06-02 21:22:00,
2013-06-02 16:27:00,84.1,72.8,29.94,SE,128,0.0,2.0,69,0.00,,,1.18,WeatherCatV1.02B3,2013-06-02 21:27:00,
2013-06-02 16:32:00,83.5,70.5,29.93,SE,128,0.0,0.0,65,0.00,,,1.18,WeatherCatV1.02B3,2013-06-02 21:32:00,
2013-06-02 16:37:00,83.0,71.8,29.94,NNE,24,0.0,3.0,69,0.00,,,1.18,WeatherCatV1.02B3,2013-06-02 21:37:00,
2013-06-02 16:42:00,82.5,70.0,29.93,NNE,27,0.0,3.0,66,0.00,,,1.18,WeatherCatV1.02B3,2013-06-02 21:42:00,
2013-06-02 16:47:00,82.4,71.2,29.93,NNE,27,0.0,0.0,69,0.00,,,1.18,WeatherCatV1.02B3,2013-06-02 21:47:00,
2013-06-02 16:52:00,82.5,71.3,29.93,NNE,22,0.0,4.0,69,0.00,,,1.18,WeatherCatV1.02B3,2013-06-02 21:52:00,
2013-06-02 16:57:00,83.8,72.1,29.93,East,80,1.0,3.0,68,0.00,,,1.18,WeatherCatV1.02B3,2013-06-02 21:57:00,
2013-06-02 17:02:00,83.6,71.0,29.93,East,80,0.0,1.0,66,0.00,,,1.18,WeatherCatV1.02B3,2013-06-02 22:02:00,
2013-06-02 17:07:00,82.8,70.7,29.93,ESE,122,0.0,1.0,67,0.00,,,1.18,WeatherCatV1.02B3,2013-06-02 22:07:00,
2013-06-02 17:12:00,82.3,70.7,29.92,NE,53,4.0,4.0,68,0.00,,,1.18,WeatherCatV1.02B3,2013-06-02 22:12:00,
2013-06-02 17:17:00,82.2,71.0,29.92,NE,53,0.0,1.0,69,0.00,,,1.18,WeatherCatV1.02B3,2013-06-02 22:17:00,
2013-06-02 17:22:00,82.4,71.2,29.92,NE,51,0.0,1.0,69,0.00,,,1.18,WeatherCatV1.02B3,2013-06-02 22:22:00,
2013-06-02 17:27:00,82.5,72.1,29.92,SE,134,0.0,3.0,71,0.00,,,1.18,WeatherCatV1.02B3,2013-06-02 22:27:00,
2013-06-02 17:32:00,82.3,71.5,29.92,ESE,109,0.0,4.0,70,0.00,,,1.18,WeatherCatV1.02B3,2013-06-02 22:32:00,
2013-06-02 17:37:00,81.9,71.5,29.92,ESE,123,0.0,5.0,71,0.00,,,1.18,WeatherCatV1.02B3,2013-06-02 22:37:00,
2013-06-02 17:42:00,81.5,71.2,29.92,NE,38,0.0,0.0,71,0.00,,,1.18,WeatherCatV1.02B3,2013-06-02 22:42:00,
2013-06-02 17:47:00,81.3,71.0,29.92,NE,38,0.0,0.0,71,0.00,,,1.18,WeatherCatV1.02B3,2013-06-02 22:47:00,
2013-06-02 17:52:00,81.2,70.5,29.92,NE,38,0.0,0.0,70,0.00,,,1.18,WeatherCatV1.02B3,2013-06-02 22:52:00,
2013-06-02 17:57:00,81.1,71.2,29.92,ESE,111,0.0,0.0,72,0.00,,,1.18,WeatherCatV1.02B3,2013-06-02 22:57:00,
2013-06-02 18:02:00,81.0,70.7,29.92,NE,40,0.0,2.0,71,0.00,,,1.18,WeatherCatV1.02B3,2013-06-02 23:02:00,
2013-06-02 18:07:00,80.9,71.0,29.92,NE,39,0.0,1.0,72,0.00,,,1.18,WeatherCatV1.02B3,2013-06-02 23:07:00,
2013-06-02 18:12:00,80.7,70.8,29.92,ENE,66,0.0,1.0,72,0.00,,,1.18,WeatherCatV1.02B3,2013-06-02 23:12:00,
2013-06-02 18:17:00,80.5,70.6,29.92,NNE,21,0.0,2.0,72,0.00,,,1.18,WeatherCatV1.02B3,2013-06-02 23:17:00,
2013-06-02 18:22:00,80.4,70.9,29.92,NNE,21,0.0,0.0,73,0.00,,,1.18,WeatherCatV1.02B3,2013-06-02 23:22:00,
2013-06-02 18:27:00,80.3,70.4,29.92,NNE,21,0.0,1.0,72,0.00,,,1.18,WeatherCatV1.02B3,2013-06-02 23:27:00,
2013-06-02 18:32:00,80.1,70.2,29.92,NNE,21,0.0,1.0,72,0.00,,,1.18,WeatherCatV1.02B3,2013-06-02 23:32:00,
2013-06-02 18:37:00,80.1,71.0,29.92,NNE,21,0.0,0.0,74,0.00,,,1.18,WeatherCatV1.02B3,2013-06-02 23:37:00,
2013-06-02 18:42:00,80.0,70.9,29.92,NNE,21,0.0,0.0,74,0.00,,,1.18,WeatherCatV1.02B3,2013-06-02 23:42:00,
2013-06-02 18:47:00,80.1,71.4,29.92,NE,52,0.0,0.0,75,0.00,,,1.18,WeatherCatV1.02B3,2013-06-02 23:47:00,
2013-06-02 18:52:00,80.0,71.3,29.92,NE,52,0.0,1.0,75,0.00,,,1.18,WeatherCatV1.02B3,2013-06-02 23:52:00,
2013-06-02 18:57:00,79.8,70.8,29.92,NNE,27,2.0,2.0,74,0.00,,,1.18,WeatherCatV1.02B3,2013-06-02 23:57:00,
2013-06-02 19:02:00,79.8,70.8,29.92,NNE,27,0.0,1.0,74,0.00,,,1.18,WeatherCatV1.02B3,2013-06-03 00:02:00,
2013-06-02 19:07:00,79.7,71.1,29.92,ENE,78,0.0,0.0,75,0.00,,,1.18,WeatherCatV1.02B3,2013-06-03 00:07:00,
2013-06-02 19:12:00,79.5,70.9,29.92,ENE,71,0.0,0.0,75,0.00,,,1.18,WeatherCatV1.02B3,2013-06-03 00:12:00,
2013-06-02 19:17:00,79.5,71.3,29.92,ENE,71,0.0,0.0,76,0.00,,,1.18,WeatherCatV1.02B3,2013-06-03 00:17:00,
2013-06-02 19:22:00,79.5,71.3,29.92,ENE,71,0.0,0.0,76,0.00,,,1.18,WeatherCatV1.02B3,2013-06-03 00:22:00,
2013-06-02 19:27:00,79.4,71.2,29.92,ENE,70,0.0,0.0,76,0.00,,,1.18,WeatherCatV1.02B3,2013-06-03 00:27:00,
2013-06-02 19:32:00,79.3,71.1,29.92,ENE,71,0.0,0.0,76,0.00,,,1.18,WeatherCatV1.02B3,2013-06-03 00:32:00,
2013-06-02 19:37:00,79.2,71.0,29.92,ENE,70,0.0,0.0,76,0.00,,,1.18,WeatherCatV1.02B3,2013-06-03 00:37:00,
2013-06-02 19:42:00,79.0,70.8,29.92,ENE,70,0.0,0.0,76,0.00,,,1.18,WeatherCatV1.02B3,2013-06-03 00:42:00,
2013-06-02 19:47:00,78.8,71.0,29.92,ENE,70,0.0,0.0,77,0.00,,,1.18,WeatherCatV1.02B3,2013-06-03 00:47:00,
2013-06-02 19:52:00,78.7,70.9,29.92,ENE,70,0.0,0.0,77,0.00,,,1.18,WeatherCatV1.02B3,2013-06-03 00:52:00,
2013-06-02 19:57:00,78.6,70.8,29.92,ENE,70,0.0,0.0,77,0.00,,,1.18,WeatherCatV1.02B3,2013-06-03 00:57:00,
2013-06-02 20:02:00,78.6,71.1,29.92,ENE,70,0.0,0.0,78,0.00,,,1.18,WeatherCatV1.02B3,2013-06-03 01:02:00,
2013-06-02 20:07:00,78.5,71.4,29.93,ENE,70,1.0,1.0,79,0.00,,,1.18,WeatherCatV1.02B3,2013-06-03 01:07:00,
2013-06-02 20:12:00,78.3,71.2,29.92,ENE,70,0.0,0.0,79,0.00,,,1.18,WeatherCatV1.02B3,2013-06-03 01:12:00,
2013-06-02 20:17:00,78.2,71.1,29.92,ENE,70,0.0,0.0,79,0.00,,,1.18,WeatherCatV1.02B3,2013-06-03 01:17:00,
2013-06-02 20:22:00,78.0,71.3,29.93,ENE,70,0.0,0.0,80,0.00,,,1.18,WeatherCatV1.02B3,2013-06-03 01:22:00,
2013-06-02 20:27:00,77.9,71.2,29.92,ENE,70,0.0,1.0,80,0.00,,,1.18,WeatherCatV1.02B3,2013-06-03 01:27:00,
2013-06-02 20:32:00,77.8,71.5,29.92,ENE,77,0.0,1.0,81,0.00,,,1.18,WeatherCatV1.02B3,2013-06-03 01:32:00,
2013-06-02 20:36:00,77.7,71.4,29.93,East,80,1.0,1.0,81,0.00,,,1.18,WeatherCatV1.02B3,2013-06-03 01:36:00,
2013-06-02 20:37:00,77.7,71.8,29.93,East,84,0.0,4.0,82,0.00,,,1.18,WeatherCatV1.02B3,2013-06-03 01:37:00,
2013-06-02 20:41:00,77.5,71.6,29.93,ESE,110,0.0,1.0,82,0.00,,,1.18,WeatherCatV1.02B3,2013-06-03 01:41:00,
2013-06-02 20:47:00,77.4,71.8,29.93,SE,126,0.0,0.0,83,0.00,,,1.18,WeatherCatV1.02B3,2013-06-03 01:47:00,
2013-06-02 20:52:00,77.2,72.3,29.93,SE,126,0.0,0.0,85,0.00,,,1.19,WeatherCatV1.02B3,2013-06-03 01:52:00,
2013-06-02 20:57:00,76.9,72.4,29.93,SE,126,0.0,0.0,86,0.13,,,1.20,WeatherCatV1.02B3,2013-06-03 01:57:00,
2013-06-02 21:02:00,76.6,72.1,29.93,SE,126,0.0,0.0,86,0.07,,,1.20,WeatherCatV1.02B3,2013-06-03 02:02:00,
2013-06-02 21:07:00,76.4,72.2,29.93,SE,126,0.0,0.0,87,0.04,,,1.20,WeatherCatV1.02B3,2013-06-03 02:07:00,
2013-06-02 21:12:00,76.2,72.4,29.94,SE,126,0.0,0.0,88,0.00,,,1.20,WeatherCatV1.02B3,2013-06-03 02:12:00,
2013-06-02 21:17:00,76.0,72.5,29.94,SE,126,0.0,0.0,89,0.00,,,1.20,WeatherCatV1.02B3,2013-06-03 02:17:00,
2013-06-02 21:22:00,75.7,72.2,29.94,SE,126,0.0,0.0,89,0.00,,,1.20,WeatherCatV1.02B3,2013-06-03 02:22:00,
2013-06-02 21:27:00,75.5,72.0,29.94,SE,126,0.0,0.0,89,0.00,,,1.20,WeatherCatV1.02B3,2013-06-03 02:27:00,
2013-06-02 21:32:00,75.3,72.2,29.94,SE,126,0.0,0.0,90,0.00,,,1.20,WeatherCatV1.02B3,2013-06-03 02:32:00,
2013-06-02 21:37:00,75.2,72.1,29.95,SE,126,0.0,0.0,90,0.00,,,1.20,WeatherCatV1.02B3,2013-06-03 02:37:00,
2013-06-02 21:42:00,75.0,72.2,29.95,SE,126,0.0,0.0,91,0.00,,,1.20,WeatherCatV1.02B3,2013-06-03 02:42:00,
2013-06-02 21:47:00,75.0,72.2,29.95,SE,126,0.0,0.0,91,0.00,,,1.20,WeatherCatV1.02B3,2013-06-03 02:47:00,
2013-06-02 21:52:00,74.8,72.0,29.95,SE,126,0.0,0.0,91,0.00,,,1.20,WeatherCatV1.02B3,2013-06-03 02:52:00,
2013-06-02 21:57:00,74.7,71.9,29.95,SE,126,0.0,0.0,91,0.00,,,1.20,WeatherCatV1.02B3,2013-06-03 02:57:00,
2013-06-02 22:02:00,74.6,71.8,29.95,SE,126,0.0,0.0,91,0.00,,,1.20,WeatherCatV1.02B3,2013-06-03 03:02:00,
2013-06-02 22:07:00,74.6,72.1,29.95,SE,126,0.0,0.0,92,0.00,,,1.20,WeatherCatV1.02B3,2013-06-03 03:07:00,
2013-06-02 22:12:00,74.5,72.0,29.95,SE,126,0.0,0.0,92,0.00,,,1.20,WeatherCatV1.02B3,2013-06-03 03:12:00,
2013-06-02 22:17:00,74.5,72.0,29.95,SE,126,0.0,0.0,92,0.00,,,1.20,WeatherCatV1.02B3,2013-06-03 03:17:00,
2013-06-02 22:22:00,74.4,71.9,29.95,SE,126,0.0,0.0,92,0.00,,,1.20,WeatherCatV1.02B3,2013-06-03 03:22:00,
2013-06-02 22:27:00,74.4,71.9,29.95,SE,126,0.0,0.0,92,0.00,,,1.20,WeatherCatV1.02B3,2013-06-03 03:27:00,
2013-06-02 22:32:00,74.3,71.8,29.95,SE,126,0.0,0.0,92,0.00,,,1.20,WeatherCatV1.02B3,2013-06-03 03:32:00,
2013-06-02 22:37:00,74.3,71.8,29.95,SE,126,0.0,0.0,92,0.00,,,1.20,WeatherCatV1.02B3,2013-06-03 03:37:00,
2013-06-02 22:42:00,74.2,71.7,29.95,SE,126,0.0,0.0,92,0.00,,,1.20,WeatherCatV1.02B3,2013-06-03 03:42:00,
2013-06-02 22:47:00,74.2,71.7,29.95,SE,126,0.0,0.0,92,0.00,,,1.20,WeatherCatV1.02B3,2013-06-03 03:47:00,
2013-06-02 22:52:00,74.1,71.6,29.94,SE,126,0.0,0.0,92,0.00,,,1.20,WeatherCatV1.02B3,2013-06-03 03:52:00,
2013-06-02 22:57:00,74.0,71.5,29.95,SE,126,0.0,0.0,92,0.00,,,1.20,WeatherCatV1.02B3,2013-06-03 03:57:00,
2013-06-02 23:01:00,73.9,71.4,29.95,SE,126,1.0,1.0,92,0.00,,,1.20,WeatherCatV1.02B3,2013-06-03 04:01:00,
2013-06-02 23:06:00,73.7,71.5,29.95,SE,126,0.0,0.0,93,0.00,,,1.20,WeatherCatV1.02B3,2013-06-03 04:06:00,
2013-06-02 23:11:00,73.6,71.4,29.95,SE,126,0.0,0.0,93,0.00,,,1.20,WeatherCatV1.02B3,2013-06-03 04:11:00,
2013-06-02 23:16:00,73.6,71.4,29.95,SE,126,0.0,0.0,93,0.00,,,1.20,WeatherCatV1.02B3,2013-06-03 04:16:00,
2013-06-02 23:21:00,73.6,71.4,29.95,SE,126,0.0,0.0,93,0.00,,,1.20,WeatherCatV1.02B3,2013-06-03 04:21:00,
2013-06-02 23:26:00,73.5,71.3,29.95,SE,126,0.0,0.0,93,0.00,,,1.20,WeatherCatV1.02B3,2013-06-03 04:26:00,
2013-06-02 23:31:00,73.5,71.3,29.95,SE,126,0.0,0.0,93,0.00,,,1.20,WeatherCatV1.02B3,2013-06-03 04:31:00,
2013-06-02 23:36:00,73.4,71.2,29.95,SE,126,0.0,0.0,93,0.00,,,1.20,WeatherCatV1.02B3,2013-06-03 04:36:00,
2013-06-02 23:41:00,73.4,71.2,29.94,SE,126,0.0,1.0,93,0.00,,,1.20,WeatherCatV1.02B3,2013-06-03 04:41:00,
2013-06-02 23:46:00,73.4,71.2,29.95,SE,126,0.0,0.0,93,0.00,,,1.20,WeatherCatV1.02B3,2013-06-03 04:46:00,
2013-06-02 23:51:00,73.3,71.1,29.95,SE,126,0.0,0.0,93,0.00,,,1.20,WeatherCatV1.02B3,2013-06-03 04:51:00,
2013-06-02 23:56:00,73.3,71.1,29.95,SE,126,0.0,0.0,93,0.00,,,1.20,WeatherCatV1.02B3,2013-06-03 04:56:00,